createdAt,value
2018-06-29T00:00:35.241Z,58.85
2018-06-29T00:01:34.929Z,58.83
2018-06-29T00:02:35.166Z,58.92
2018-06-29T00:03:35.092Z,58.91
2018-06-29T00:04:35.070Z,58.92
2018-06-29T00:05:35.306Z,58.92
2018-06-29T00:06:35.074Z,58.89
2018-06-29T00:07:35.123Z,58.91
2018-06-29T00:08:34.989Z,58.89
2018-06-29T00:09:35.255Z,58.91
2018-06-29T00:10:34.974Z,58.93
2018-06-29T00:11:35.154Z,58.9
2018-06-29T00:12:35.127Z,58.97
2018-06-29T00:13:35.114Z,58.9
2018-06-29T00:14:35.274Z,58.86
2018-06-29T00:15:34.980Z,58.96
2018-06-29T00:16:35.668Z,58.73
2018-06-29T00:17:35.156Z,58.65
2018-06-29T00:18:35.029Z,58.71
2018-06-29T00:19:35.013Z,58.72
2018-06-29T00:20:35.293Z,59.25
2018-06-29T00:21:35.029Z,59.04
2018-06-29T00:22:35.016Z,58.95
2018-06-29T00:23:35.127Z,58.95
2018-06-29T00:24:35.597Z,58.89
2018-06-29T00:25:35.195Z,58.65
2018-06-29T00:26:35.016Z,58.91
2018-06-29T00:27:35.210Z,59.14
2018-06-29T00:28:35.006Z,58.98
2018-06-29T00:29:35.290Z,59.07
2018-06-29T00:30:35.471Z,59.11
2018-06-29T00:31:35.104Z,59.29
2018-06-29T00:32:35.290Z,59.17
2018-06-29T00:33:35.119Z,59.15
2018-06-29T00:34:35.369Z,59.17
2018-06-29T00:35:35.150Z,59.14
2018-06-29T00:36:35.160Z,59.14
2018-06-29T00:37:35.137Z,59.21
2018-06-29T00:38:35.186Z,59.35
2018-06-29T00:39:35.164Z,59.28
2018-06-29T00:40:35.112Z,59.16
2018-06-29T00:41:35.178Z,59.43
2018-06-29T00:42:35.174Z,59.44
2018-06-29T00:43:35.299Z,59.25
2018-06-29T00:44:35.176Z,59.31
2018-06-29T00:45:35.126Z,59.3
2018-06-29T00:46:35.083Z,59.34
2018-06-29T00:47:35.078Z,59.32
2018-06-29T00:48:35.084Z,59.28
2018-06-29T00:49:35.233Z,59.33
2018-06-29T00:50:35.209Z,59.24
2018-06-29T00:51:35.225Z,59.28
2018-06-29T00:52:35.220Z,59.3
2018-06-29T00:53:35.266Z,59.27
2018-06-29T00:54:35.488Z,59.22
2018-06-29T00:55:35.050Z,59.35
2018-06-29T00:56:35.131Z,59.33
2018-06-29T00:57:35.123Z,59.37
2018-06-29T00:58:35.086Z,59.2
2018-06-29T00:59:35.302Z,59.26
2018-06-29T01:00:35.235Z,59
2018-06-29T01:01:35.210Z,59.2
2018-06-29T01:02:35.213Z,59.33
2018-06-29T01:03:35.139Z,59.38
2018-06-29T01:04:35.285Z,59.39
2018-06-29T01:05:35.235Z,59.33
2018-06-29T01:06:34.930Z,59.32
2018-06-29T01:07:35.142Z,59.56
2018-06-29T01:08:35.260Z,59.32
2018-06-29T01:09:35.140Z,59.1
2018-06-29T01:10:35.250Z,59.14
2018-06-29T01:11:35.191Z,58.91
2018-06-29T01:12:35.234Z,58.92
2018-06-29T01:13:35.231Z,59.06
2018-06-29T01:14:34.972Z,59.22
2018-06-29T01:15:34.945Z,59.31
2018-06-29T01:16:35.058Z,59.39
2018-06-29T01:17:35.269Z,59.34
2018-06-29T01:18:34.929Z,59.4
2018-06-29T01:19:34.907Z,59.38
2018-06-29T01:20:35.341Z,59.29
2018-06-29T01:21:35.262Z,59.37
2018-06-29T01:22:34.985Z,59.25
2018-06-29T01:23:35.007Z,59.28
2018-06-29T01:24:34.874Z,59.3
2018-06-29T01:25:35.260Z,59.35
2018-06-29T01:26:35.023Z,59.36
2018-06-29T01:27:34.954Z,59.42
2018-06-29T01:28:35.528Z,59.43
2018-06-29T01:29:35.070Z,59.39
2018-06-29T01:30:34.938Z,59.4
2018-06-29T01:31:34.978Z,59.42
2018-06-29T01:32:34.999Z,59.42
2018-06-29T01:33:34.851Z,59.45
2018-06-29T01:34:35.315Z,59.39
2018-06-29T01:35:34.962Z,59.36
2018-06-29T01:36:35.048Z,59.42
2018-06-29T01:37:35.073Z,59.38
2018-06-29T01:38:35.016Z,59.39
2018-06-29T01:39:34.986Z,59.44
2018-06-29T01:40:35.113Z,59.43
2018-06-29T01:41:35.106Z,59.42
2018-06-29T01:42:45.072Z,59.46
2018-06-29T01:43:35.022Z,59.41
2018-06-29T01:44:34.926Z,59.45
2018-06-29T01:45:35.190Z,59.48
2018-06-29T01:46:35.145Z,59.45
2018-06-29T01:47:35.050Z,59.47
2018-06-29T01:48:35.113Z,59.49
2018-06-29T01:49:35.107Z,59.45
2018-06-29T01:50:35.045Z,59.47
2018-06-29T01:51:34.952Z,59.47
2018-06-29T01:52:35.578Z,59.44
2018-06-29T01:53:34.959Z,59.49
2018-06-29T01:54:34.945Z,59.47
2018-06-29T01:55:35.058Z,59.49
2018-06-29T01:56:35.113Z,59.45
2018-06-29T01:57:35.243Z,59.5
2018-06-29T01:58:35.172Z,59.43
2018-06-29T01:59:35.094Z,59.4
2018-06-29T02:00:34.989Z,59.46
2018-06-29T02:01:35.152Z,59.41
2018-06-29T02:02:35.089Z,59.43
2018-06-29T02:03:35.114Z,59.43
2018-06-29T02:04:35.125Z,59.46
2018-06-29T02:05:35.073Z,59.39
2018-06-29T02:06:35.028Z,59.42
2018-06-29T02:07:35.051Z,59.43
2018-06-29T02:08:35.059Z,59.43
2018-06-29T02:09:34.908Z,59.42
2018-06-29T02:10:35.159Z,59.43
2018-06-29T02:11:35.177Z,59.41
2018-06-29T02:12:35.015Z,59.43
2018-06-29T02:13:35.186Z,59.43
2018-06-29T02:14:35.051Z,59.42
2018-06-29T02:15:34.949Z,59.43
2018-06-29T02:16:35.146Z,59.43
2018-06-29T02:17:35.225Z,59.43
2018-06-29T02:18:34.981Z,59.38
2018-06-29T02:19:34.960Z,59.38
2018-06-29T02:20:35.246Z,59.43
2018-06-29T02:21:34.884Z,59.4
2018-06-29T02:22:35.227Z,59.41
2018-06-29T02:23:35.166Z,59.43
2018-06-29T02:24:35.075Z,59.38
2018-06-29T02:25:34.908Z,59.39
2018-06-29T02:26:35.070Z,59.39
2018-06-29T02:27:35.496Z,59.39
2018-06-29T02:28:35.012Z,59.41
2018-06-29T02:29:35.093Z,59.39
2018-06-29T02:30:35.763Z,59.38
2018-06-29T02:31:35.057Z,59.4
2018-06-29T02:32:34.908Z,59.42
2018-06-29T02:33:35.031Z,59.39
2018-06-29T02:34:34.959Z,59.42
2018-06-29T02:35:34.976Z,59.42
2018-06-29T02:36:35.115Z,59.36
2018-06-29T02:37:35.033Z,59.34
2018-06-29T02:38:35.156Z,59.37
2018-06-29T02:39:34.984Z,59.39
2018-06-29T02:40:35.064Z,59.36
2018-06-29T02:41:35.020Z,59.34
2018-06-29T02:42:35.000Z,59.33
2018-06-29T02:43:35.034Z,59.32
2018-06-29T02:44:34.998Z,59.31
2018-06-29T02:45:34.945Z,59.36
2018-06-29T02:46:35.069Z,59.32
2018-06-29T02:47:35.159Z,59.33
2018-06-29T02:48:35.087Z,59.36
2018-06-29T02:49:35.039Z,59.34
2018-06-29T02:50:34.945Z,59.32
2018-06-29T02:51:35.045Z,59.27
2018-06-29T02:52:35.088Z,59.28
2018-06-29T02:53:35.180Z,59.26
2018-06-29T02:54:34.979Z,59.29
2018-06-29T02:55:34.977Z,59.27
2018-06-29T02:56:35.155Z,59.24
2018-06-29T02:57:35.031Z,59.24
2018-06-29T02:58:35.003Z,59.22
2018-06-29T02:59:34.984Z,59.25
2018-06-29T03:00:35.165Z,59.25
2018-06-29T03:01:35.028Z,59.22
2018-06-29T03:02:35.187Z,59.24
2018-06-29T03:03:35.196Z,59.22
2018-06-29T03:04:35.005Z,59.21
2018-06-29T03:05:34.958Z,59.21
2018-06-29T03:06:35.118Z,59.22
2018-06-29T03:07:35.045Z,59.23
2018-06-29T03:08:35.003Z,59.21
2018-06-29T03:09:35.170Z,59.19
2018-06-29T03:10:35.049Z,59.18
2018-06-29T03:11:35.130Z,59.21
2018-06-29T03:12:35.171Z,59.19
2018-06-29T03:13:35.147Z,59.17
2018-06-29T03:14:35.115Z,59.22
2018-06-29T03:15:35.060Z,59.19
2018-06-29T03:16:35.082Z,59.17
2018-06-29T03:17:35.158Z,59.19
2018-06-29T03:18:35.234Z,59.21
2018-06-29T03:19:35.290Z,59.24
2018-06-29T03:20:35.148Z,59.18
2018-06-29T03:21:35.153Z,59.17
2018-06-29T03:22:35.134Z,59.22
2018-06-29T03:23:35.136Z,59.22
2018-06-29T03:24:35.141Z,59.21
2018-06-29T03:25:35.060Z,59.23
2018-06-29T03:26:35.008Z,59.26
2018-06-29T03:27:35.147Z,59.24
2018-06-29T03:28:35.116Z,59.26
2018-06-29T03:29:35.135Z,59.28
2018-06-29T03:30:35.069Z,59.28
2018-06-29T03:31:35.213Z,59.22
2018-06-29T03:32:35.255Z,59.24
2018-06-29T03:33:35.050Z,59.27
2018-06-29T03:34:35.022Z,59.3
2018-06-29T03:35:35.164Z,59.26
2018-06-29T03:36:35.208Z,59.23
2018-06-29T03:37:35.131Z,59.31
2018-06-29T03:38:34.912Z,59.27
2018-06-29T03:39:34.890Z,59.33
2018-06-29T03:40:36.890Z,59.31
2018-06-29T03:41:35.177Z,59.3
2018-06-29T03:42:35.198Z,59.35
2018-06-29T03:43:35.077Z,59.31
2018-06-29T03:44:35.128Z,59.35
2018-06-29T03:45:34.980Z,59.38
2018-06-29T03:46:34.921Z,59.34
2018-06-29T03:47:35.212Z,59.33
2018-06-29T03:48:35.239Z,59.33
2018-06-29T03:49:35.799Z,59.38
2018-06-29T03:50:35.159Z,59.39
2018-06-29T03:51:35.107Z,59.35
2018-06-29T03:52:35.160Z,59.37
2018-06-29T03:53:34.938Z,59.4
2018-06-29T03:54:34.965Z,59.38
2018-06-29T03:55:34.949Z,59.42
2018-06-29T03:56:35.168Z,59.37
2018-06-29T03:57:34.906Z,59.4
2018-06-29T03:58:35.000Z,59.36
2018-06-29T03:59:35.154Z,59.39
2018-06-29T04:00:34.933Z,59.43
2018-06-29T04:01:34.954Z,59.37
2018-06-29T04:02:35.016Z,59.41
2018-06-29T04:03:35.361Z,59.4
2018-06-29T04:04:34.870Z,59.4
2018-06-29T04:05:35.071Z,59.41
2018-06-29T04:06:35.032Z,59.41
2018-06-29T04:07:35.026Z,59.4
2018-06-29T04:08:35.252Z,59.44
2018-06-29T04:09:34.860Z,59.41
2018-06-29T04:10:35.017Z,59.39
2018-06-29T04:11:35.289Z,59.42
2018-06-29T04:12:35.303Z,59.41
2018-06-29T04:13:35.043Z,59.44
2018-06-29T04:14:34.903Z,59.42
2018-06-29T04:15:35.081Z,59.43
2018-06-29T04:16:35.068Z,59.46
2018-06-29T04:17:35.062Z,59.45
2018-06-29T04:18:35.417Z,59.4
2018-06-29T04:19:34.997Z,59.41
2018-06-29T04:20:34.947Z,59.43
2018-06-29T04:21:35.119Z,59.43
2018-06-29T04:22:34.881Z,59.44
2018-06-29T04:23:34.967Z,59.4
2018-06-29T04:24:35.093Z,59.41
2018-06-29T04:25:34.972Z,59.44
2018-06-29T04:26:36.090Z,59.43
2018-06-29T04:27:35.125Z,59.44
2018-06-29T04:28:35.085Z,59.44
2018-06-29T04:29:34.993Z,59.43
2018-06-29T04:30:34.843Z,59.45
2018-06-29T04:31:34.945Z,59.41
2018-06-29T04:32:34.991Z,59.43
2018-06-29T04:33:34.807Z,59.44
2018-06-29T04:34:35.427Z,59.44
2018-06-29T04:35:35.027Z,59.43
2018-06-29T04:36:35.054Z,59.42
2018-06-29T04:37:34.984Z,59.42
2018-06-29T04:38:35.389Z,59.43
2018-06-29T04:39:35.025Z,59.43
2018-06-29T04:40:35.037Z,59.41
2018-06-29T04:41:34.910Z,59.41
2018-06-29T04:42:34.938Z,59.42
2018-06-29T04:43:35.048Z,59.4
2018-06-29T04:44:34.929Z,59.41
2018-06-29T04:45:35.119Z,59.43
2018-06-29T04:46:34.982Z,59.42
2018-06-29T04:47:35.128Z,59.41
2018-06-29T04:48:34.936Z,59.43
2018-06-29T04:49:35.093Z,59.4
2018-06-29T04:50:34.981Z,59.43
2018-06-29T04:51:34.906Z,59.42
2018-06-29T04:52:35.018Z,59.39
2018-06-29T04:53:34.877Z,59.39
2018-06-29T04:54:34.978Z,59.42
2018-06-29T04:55:35.054Z,59.41
2018-06-29T04:56:34.996Z,59.41
2018-06-29T04:57:35.004Z,59.46
2018-06-29T04:58:35.055Z,59.42
2018-06-29T04:59:35.034Z,59.44
2018-06-29T05:00:34.928Z,59.45
2018-06-29T05:01:35.036Z,59.46
2018-06-29T05:02:34.854Z,59.42
2018-06-29T05:03:34.924Z,59.41
2018-06-29T05:04:35.132Z,59.42
2018-06-29T05:05:35.002Z,59.44
2018-06-29T05:06:35.009Z,59.43
2018-06-29T05:07:34.994Z,59.43
2018-06-29T05:08:35.025Z,59.42
2018-06-29T05:09:35.006Z,59.41
2018-06-29T05:10:35.052Z,59.46
2018-06-29T05:11:34.761Z,59.41
2018-06-29T05:12:34.976Z,59.43
2018-06-29T05:13:35.178Z,59.43
2018-06-29T05:14:34.935Z,59.46
2018-06-29T05:15:35.749Z,59.42
2018-06-29T05:16:35.102Z,59.4
2018-06-29T05:17:35.029Z,59.46
2018-06-29T05:18:34.933Z,59.42
2018-06-29T05:19:34.882Z,59.42
2018-06-29T05:20:34.823Z,59.42
2018-06-29T05:21:35.197Z,59.48
2018-06-29T05:22:34.988Z,59.42
2018-06-29T05:23:34.866Z,59.43
2018-06-29T05:24:35.134Z,59.44
2018-06-29T05:25:34.992Z,59.45
2018-06-29T05:26:34.887Z,59.44
2018-06-29T05:27:35.104Z,59.44
2018-06-29T05:28:35.572Z,59.44
2018-06-29T05:29:44.953Z,59.43
2018-06-29T05:30:35.017Z,59.42
2018-06-29T05:31:35.196Z,59.44
2018-06-29T05:32:34.983Z,59.46
2018-06-29T05:33:34.910Z,59.42
2018-06-29T05:34:34.963Z,59.45
2018-06-29T05:35:35.037Z,59.41
2018-06-29T05:36:35.113Z,59.44
2018-06-29T05:37:35.009Z,59.44
2018-06-29T05:38:35.011Z,59.41
2018-06-29T05:39:35.166Z,59.44
2018-06-29T05:40:34.936Z,59.42
2018-06-29T05:41:36.417Z,59.45
2018-06-29T05:42:35.524Z,59.45
2018-06-29T05:43:35.135Z,59.46
2018-06-29T05:44:35.088Z,59.46
2018-06-29T05:45:34.959Z,59.46
2018-06-29T05:46:35.239Z,59.43
2018-06-29T05:47:34.993Z,59.44
2018-06-29T05:48:35.089Z,59.47
2018-06-29T05:49:34.984Z,59.43
2018-06-29T05:51:05.408Z,59.47
2018-06-29T05:51:35.173Z,59.46
2018-06-29T05:52:35.342Z,59.46
2018-06-29T05:53:34.975Z,59.47
2018-06-29T05:54:35.345Z,59.43
2018-06-29T05:55:35.166Z,59.46
2018-06-29T05:56:35.299Z,59.43
2018-06-29T05:57:36.040Z,59.45
2018-06-29T05:58:35.049Z,59.44
2018-06-29T05:59:35.055Z,59.46
2018-06-29T06:00:34.995Z,59.44
2018-06-29T06:01:35.070Z,59.47
2018-06-29T06:02:35.032Z,59.47
2018-06-29T06:03:35.022Z,59.46
2018-06-29T06:04:35.504Z,59.41
2018-06-29T06:05:35.003Z,59.44
2018-06-29T06:06:35.170Z,59.46
2018-06-29T06:07:35.104Z,59.44
2018-06-29T06:08:35.011Z,59.44
2018-06-29T06:09:35.107Z,59.44
2018-06-29T06:10:35.096Z,59.45
2018-06-29T06:11:34.943Z,59.47
2018-06-29T06:12:35.173Z,59.4
2018-06-29T06:13:35.001Z,59.45
2018-06-29T06:14:35.162Z,59.44
2018-06-29T06:15:35.109Z,59.46
2018-06-29T06:16:34.996Z,59.51
2018-06-29T06:17:34.849Z,59.45
2018-06-29T06:18:35.254Z,59.47
2018-06-29T06:19:35.181Z,59.5
2018-06-29T06:20:34.894Z,59.45
2018-06-29T06:21:35.126Z,59.43
2018-06-29T06:22:35.104Z,59.49
2018-06-29T06:23:35.003Z,59.44
2018-06-29T06:24:35.173Z,59.45
2018-06-29T06:25:34.892Z,59.49
2018-06-29T06:26:35.179Z,59.45
2018-06-29T06:27:35.166Z,59.47
2018-06-29T06:28:35.138Z,59.48
2018-06-29T06:29:34.880Z,59.48
2018-06-29T06:30:34.872Z,59.49
2018-06-29T06:31:34.940Z,59.5
2018-06-29T06:32:34.926Z,59.5
2018-06-29T06:33:35.177Z,59.44
2018-06-29T06:34:34.859Z,59.46
2018-06-29T06:35:35.072Z,59.47
2018-06-29T06:36:35.129Z,59.48
2018-06-29T06:37:35.168Z,59.47
2018-06-29T06:38:34.916Z,59.49
2018-06-29T06:39:35.176Z,59.51
2018-06-29T06:40:35.220Z,59.5
2018-06-29T06:42:05.375Z,59.48
2018-06-29T06:42:35.103Z,59.49
2018-06-29T06:43:34.892Z,59.5
2018-06-29T06:44:34.867Z,59.48
2018-06-29T06:45:35.194Z,59.5
2018-06-29T06:46:34.959Z,59.48
2018-06-29T06:47:35.024Z,59.48
2018-06-29T06:48:35.224Z,59.5
2018-06-29T06:49:35.224Z,59.48
2018-06-29T06:50:35.202Z,59.49
2018-06-29T06:51:35.176Z,59.46
2018-06-29T06:52:36.356Z,59.48
2018-06-29T06:53:35.389Z,59.49
2018-06-29T06:54:35.010Z,59.49
2018-06-29T06:55:34.889Z,59.48
2018-06-29T06:56:35.072Z,59.5
2018-06-29T06:57:34.960Z,59.49
2018-06-29T06:58:34.933Z,59.48
2018-06-29T06:59:34.959Z,59.48
2018-06-29T07:00:35.244Z,59.49
2018-06-29T07:01:35.032Z,59.49
2018-06-29T07:02:34.990Z,59.49
2018-06-29T07:03:35.014Z,59.5
2018-06-29T07:04:35.040Z,59.48
2018-06-29T07:05:35.062Z,59.48
2018-06-29T07:06:35.016Z,59.48
2018-06-29T07:07:34.824Z,59.55
2018-06-29T07:08:35.131Z,59.62
2018-06-29T07:09:34.931Z,59.71
2018-06-29T07:10:34.868Z,59.46
2018-06-29T07:11:34.914Z,59.53
2018-06-29T07:12:35.856Z,59.59
2018-06-29T07:13:34.950Z,59.56
2018-06-29T07:14:35.041Z,59.6
2018-06-29T07:15:34.974Z,59.54
2018-06-29T07:16:35.032Z,59.91
2018-06-29T07:17:34.972Z,59.64
2018-06-29T07:18:34.896Z,59.59
2018-06-29T07:19:34.872Z,59.61
2018-06-29T07:20:34.766Z,59.68
2018-06-29T07:21:35.023Z,59.64
2018-06-29T07:22:35.085Z,59.65
2018-06-29T07:23:34.990Z,59.62
2018-06-29T07:24:36.220Z,59.62
2018-06-29T07:25:35.084Z,59.61
2018-06-29T07:26:34.913Z,59.66
2018-06-29T07:27:35.202Z,59.64
2018-06-29T07:28:35.092Z,59.64
2018-06-29T07:29:35.038Z,59.58
2018-06-29T07:30:34.922Z,59.62
2018-06-29T07:31:34.864Z,59.58
2018-06-29T07:32:35.125Z,59.56
2018-06-29T07:33:35.105Z,59.61
2018-06-29T07:34:34.918Z,59.6
2018-06-29T07:35:35.085Z,59.53
2018-06-29T07:36:35.065Z,59.54
2018-06-29T07:37:34.818Z,59.57
2018-06-29T07:38:35.226Z,59.55
2018-06-29T07:39:34.854Z,59.55
2018-06-29T07:40:34.958Z,59.55
2018-06-29T07:41:34.842Z,59.52
2018-06-29T07:42:34.940Z,59.54
2018-06-29T07:43:34.877Z,59.55
2018-06-29T07:44:34.830Z,59.56
2018-06-29T07:45:34.953Z,59.56
2018-06-29T07:46:35.825Z,59.63
2018-06-29T07:47:35.086Z,59.59
2018-06-29T07:48:35.155Z,59.66
2018-06-29T07:49:34.898Z,59.69
2018-06-29T07:50:35.196Z,59.69
2018-06-29T07:51:35.196Z,59.68
2018-06-29T07:52:35.092Z,59.65
2018-06-29T07:53:34.826Z,59.69
2018-06-29T07:54:34.860Z,59.69
2018-06-29T07:55:34.960Z,59.67
2018-06-29T07:56:35.187Z,59.65
2018-06-29T07:57:35.171Z,59.69
2018-06-29T07:58:35.783Z,59.66
2018-06-29T07:59:35.072Z,59.65
2018-06-29T08:00:34.989Z,59.66
2018-06-29T08:01:35.043Z,59.65
2018-06-29T08:02:35.395Z,59.66
2018-06-29T08:03:35.009Z,59.68
2018-06-29T08:04:34.890Z,59.65
2018-06-29T08:05:34.993Z,59.65
2018-06-29T08:06:35.138Z,59.67
2018-06-29T08:07:34.876Z,59.64
2018-06-29T08:08:34.984Z,59.64
2018-06-29T08:09:35.010Z,59.65
2018-06-29T08:10:35.544Z,59.66
2018-06-29T08:11:35.031Z,59.64
2018-06-29T08:12:34.988Z,59.66
2018-06-29T08:13:35.034Z,59.64
2018-06-29T08:14:34.920Z,59.64
2018-06-29T08:15:34.934Z,59.68
2018-06-29T08:16:34.925Z,59.61
2018-06-29T08:17:34.963Z,59.63
2018-06-29T08:18:34.965Z,59.62
2018-06-29T08:19:35.013Z,59.68
2018-06-29T08:20:34.968Z,59.64
2018-06-29T08:21:34.973Z,59.62
2018-06-29T08:22:34.980Z,59.64
2018-06-29T08:23:34.988Z,59.63
2018-06-29T08:24:35.013Z,59.6
2018-06-29T08:25:34.988Z,59.59
2018-06-29T08:26:35.126Z,59.59
2018-06-29T08:27:35.089Z,59.59
2018-06-29T08:28:35.010Z,59.62
2018-06-29T08:29:35.093Z,59.64
2018-06-29T08:30:35.066Z,59.63
2018-06-29T08:31:35.045Z,59.64
2018-06-29T08:32:35.050Z,59.59
2018-06-29T08:33:35.051Z,59.6
2018-06-29T08:34:35.067Z,59.63
2018-06-29T08:35:35.172Z,59.61
2018-06-29T08:36:35.070Z,59.6
2018-06-29T08:37:35.186Z,59.61
2018-06-29T08:38:35.351Z,59.61
2018-06-29T08:39:35.077Z,59.61
2018-06-29T08:40:35.085Z,59.59
2018-06-29T08:41:35.094Z,59.59
2018-06-29T08:42:35.088Z,59.61
2018-06-29T08:43:35.090Z,59.63
2018-06-29T08:44:35.163Z,59.58
2018-06-29T08:45:35.116Z,59.6
2018-06-29T08:46:35.171Z,59.59
2018-06-29T08:47:35.123Z,59.56
2018-06-29T08:48:35.120Z,59.63
2018-06-29T08:49:35.479Z,59.6
2018-06-29T08:50:35.160Z,59.58
2018-06-29T08:51:35.133Z,59.57
2018-06-29T08:52:35.144Z,59.59
2018-06-29T08:53:35.151Z,59.58
2018-06-29T08:54:35.232Z,59.59
2018-06-29T08:55:35.220Z,59.58
2018-06-29T08:56:35.039Z,59.56
2018-06-29T08:57:35.103Z,59.59
2018-06-29T08:58:35.160Z,59.54
2018-06-29T08:59:35.177Z,59.53
2018-06-29T09:00:35.177Z,59.58
2018-06-29T09:01:35.141Z,59.6
2018-06-29T09:02:35.188Z,59.59
2018-06-29T09:03:35.208Z,59.56
2018-06-29T09:04:35.224Z,59.58
2018-06-29T09:05:35.213Z,59.6
2018-06-29T09:06:34.875Z,59.59
2018-06-29T09:07:34.806Z,59.58
2018-06-29T09:08:35.053Z,59.61
2018-06-29T09:09:35.184Z,59.58
2018-06-29T09:10:35.139Z,59.58
2018-06-29T09:11:35.153Z,59.56
2018-06-29T09:12:35.245Z,59.58
2018-06-29T09:13:35.186Z,59.6
2018-06-29T09:14:35.470Z,59.56
2018-06-29T09:15:35.266Z,59.57
2018-06-29T09:16:34.880Z,59.57
2018-06-29T09:17:35.264Z,59.58
2018-06-29T09:18:35.418Z,59.6
2018-06-29T09:19:35.247Z,59.6
2018-06-29T09:20:35.255Z,59.59
2018-06-29T09:21:35.302Z,59.6
2018-06-29T09:22:34.847Z,59.56
2018-06-29T09:23:54.805Z,59.57
2018-06-29T09:24:34.969Z,59.57
2018-06-29T09:25:35.188Z,59.55
2018-06-29T09:26:34.854Z,59.55
2018-06-29T09:27:35.146Z,59.61
2018-06-29T09:28:35.299Z,59.56
2018-06-29T09:29:35.219Z,59.56
2018-06-29T09:30:35.245Z,59.58
2018-06-29T09:31:34.915Z,59.56
2018-06-29T09:32:34.997Z,59.57
2018-06-29T09:33:35.312Z,59.57
2018-06-29T09:34:34.995Z,59.56
2018-06-29T09:35:34.908Z,59.56
2018-06-29T09:36:35.241Z,59.58
2018-06-29T09:37:34.817Z,59.55
2018-06-29T09:38:35.341Z,59.57
2018-06-29T09:39:35.364Z,59.57
2018-06-29T09:40:35.323Z,59.54
2018-06-29T09:41:34.990Z,59.54
2018-06-29T09:42:35.944Z,59.56
2018-06-29T09:43:35.000Z,59.53
2018-06-29T09:44:34.834Z,59.56
2018-06-29T09:45:35.067Z,59.58
2018-06-29T09:46:35.028Z,59.55
2018-06-29T09:47:35.377Z,59.53
2018-06-29T09:48:35.383Z,59.56
2018-06-29T09:49:34.935Z,59.56
2018-06-29T09:50:34.997Z,59.53
2018-06-29T09:51:35.526Z,59.53
2018-06-29T09:52:34.883Z,59.56
2018-06-29T09:53:34.850Z,59.54
2018-06-29T09:54:35.135Z,59.55
2018-06-29T09:55:35.089Z,59.54
2018-06-29T09:56:35.001Z,59.54
2018-06-29T09:57:34.998Z,59.55
2018-06-29T09:58:34.933Z,59.56
2018-06-29T09:59:35.444Z,59.53
2018-06-29T10:00:35.551Z,59.55
2018-06-29T10:01:34.840Z,59.53
2018-06-29T10:02:44.954Z,59.54
2018-06-29T10:03:35.026Z,59.57
2018-06-29T10:04:34.845Z,59.54
2018-06-29T10:05:34.874Z,59.53
2018-06-29T10:06:35.079Z,59.59
2018-06-29T10:07:35.100Z,59.56
2018-06-29T10:08:34.958Z,59.53
2018-06-29T10:09:34.997Z,59.54
2018-06-29T10:10:35.143Z,59.53
2018-06-29T10:11:34.872Z,59.55
2018-06-29T10:12:34.874Z,59.57
2018-06-29T10:13:35.033Z,59.54
2018-06-29T10:14:34.865Z,59.52
2018-06-29T10:15:34.968Z,59.55
2018-06-29T10:16:34.916Z,59.56
2018-06-29T10:17:34.854Z,59.54
2018-06-29T10:18:35.011Z,59.58
2018-06-29T10:19:35.920Z,59.56
2018-06-29T10:20:35.128Z,59.58
2018-06-29T10:21:35.037Z,59.59
2018-06-29T10:22:35.657Z,59.52
2018-06-29T10:23:34.828Z,59.52
2018-06-29T10:24:35.037Z,59.54
2018-06-29T10:25:35.495Z,59.57
2018-06-29T10:26:35.029Z,59.53
2018-06-29T10:27:34.853Z,59.56
2018-06-29T10:28:35.022Z,59.56
2018-06-29T10:29:35.021Z,59.56
2018-06-29T10:30:35.079Z,59.56
2018-06-29T10:31:34.825Z,59.55
2018-06-29T10:32:34.837Z,59.53
2018-06-29T10:33:35.163Z,59.56
2018-06-29T10:34:34.761Z,59.56
2018-06-29T10:35:34.916Z,59.54
2018-06-29T10:36:35.083Z,59.53
2018-06-29T10:37:35.054Z,59.53
2018-06-29T10:38:34.808Z,59.55
2018-06-29T10:39:34.943Z,59.55
2018-06-29T10:40:34.809Z,59.55
2018-06-29T10:41:35.209Z,59.55
2018-06-29T10:42:34.820Z,59.54
2018-06-29T10:43:34.997Z,59.56
2018-06-29T10:44:35.364Z,59.57
2018-06-29T10:45:34.937Z,59.57
2018-06-29T10:46:35.014Z,59.57
2018-06-29T10:47:34.950Z,59.57
2018-06-29T10:48:34.928Z,59.57
2018-06-29T10:49:34.953Z,59.56
2018-06-29T10:50:34.831Z,59.56
2018-06-29T10:51:34.842Z,59.62
2018-06-29T10:52:35.003Z,59.57
2018-06-29T10:53:35.001Z,59.55
2018-06-29T10:54:34.808Z,59.55
2018-06-29T10:55:34.952Z,59.54
2018-06-29T10:56:35.042Z,59.54
2018-06-29T10:57:35.026Z,59.57
2018-06-29T10:58:35.387Z,59.57
2018-06-29T10:59:34.981Z,59.56
2018-06-29T11:00:35.001Z,59.56
2018-06-29T11:01:34.911Z,59.6
2018-06-29T11:02:34.847Z,59.55
2018-06-29T11:03:35.014Z,59.57
2018-06-29T11:04:34.794Z,59.56
2018-06-29T11:05:35.656Z,59.56
2018-06-29T11:06:34.932Z,59.54
2018-06-29T11:07:34.770Z,59.58
2018-06-29T11:08:34.841Z,59.57
2018-06-29T11:09:34.990Z,59.56
2018-06-29T11:10:34.977Z,59.56
2018-06-29T11:11:35.043Z,59.57
2018-06-29T11:12:34.909Z,59.57
2018-06-29T11:13:35.118Z,59.56
2018-06-29T11:14:34.850Z,59.55
2018-06-29T11:15:34.846Z,59.56
2018-06-29T11:16:35.246Z,59.54
2018-06-29T11:17:34.880Z,59.53
2018-06-29T11:18:35.015Z,59.56
2018-06-29T11:19:35.146Z,59.58
2018-06-29T11:20:34.935Z,59.54
2018-06-29T11:21:35.099Z,59.54
2018-06-29T11:22:35.491Z,59.56
2018-06-29T11:23:35.058Z,59.57
2018-06-29T11:24:34.913Z,59.56
2018-06-29T11:25:34.929Z,59.54
2018-06-29T11:26:34.881Z,59.54
2018-06-29T11:27:34.872Z,59.55
2018-06-29T11:28:35.062Z,59.54
2018-06-29T11:29:35.011Z,59.52
2018-06-29T11:30:35.284Z,59.57
2018-06-29T11:31:35.185Z,59.58
2018-06-29T11:32:34.907Z,59.56
2018-06-29T11:33:34.993Z,59.56
2018-06-29T11:34:34.977Z,59.56
2018-06-29T11:35:34.946Z,59.56
2018-06-29T11:36:34.810Z,59.56
2018-06-29T11:37:34.807Z,59.53
2018-06-29T11:38:34.887Z,59.58
2018-06-29T11:39:35.062Z,59.58
2018-06-29T11:40:34.870Z,59.57
2018-06-29T11:41:35.257Z,59.56
2018-06-29T11:42:35.652Z,59.52
2018-06-29T11:43:34.968Z,59.53
2018-06-29T11:44:34.936Z,59.59
2018-06-29T11:45:35.081Z,59.56
2018-06-29T11:46:35.138Z,59.55
2018-06-29T11:47:35.071Z,59.57
2018-06-29T11:48:35.364Z,59.58
2018-06-29T11:49:34.902Z,59.61
2018-06-29T11:50:34.893Z,59.52
2018-06-29T11:51:34.938Z,59.57
2018-06-29T11:52:34.945Z,59.56
2018-06-29T11:53:34.795Z,59.53
2018-06-29T11:54:34.935Z,59.56
2018-06-29T11:55:34.957Z,59.57
2018-06-29T11:56:34.917Z,59.57
2018-06-29T11:57:34.863Z,59.57
2018-06-29T11:58:34.924Z,59.58
2018-06-29T11:59:34.875Z,59.55
2018-06-29T12:00:35.421Z,59.59
2018-06-29T12:01:34.994Z,59.52
2018-06-29T12:02:34.814Z,59.56
2018-06-29T12:03:34.902Z,59.54
2018-06-29T12:04:34.979Z,59.55
2018-06-29T12:05:34.805Z,59.58
2018-06-29T12:06:34.837Z,59.58
2018-06-29T12:07:34.899Z,59.52
2018-06-29T12:08:35.099Z,59.55
2018-06-29T12:09:34.821Z,59.58
2018-06-29T12:10:35.118Z,59.59
2018-06-29T12:11:34.959Z,59.52
2018-06-29T12:12:34.805Z,59.55
2018-06-29T12:13:34.905Z,59.55
2018-06-29T12:14:35.094Z,59.57
2018-06-29T12:15:34.996Z,59.59
2018-06-29T12:16:35.019Z,59.58
2018-06-29T12:17:34.808Z,59.54
2018-06-29T12:18:34.823Z,59.58
2018-06-29T12:19:34.883Z,59.58
2018-06-29T12:20:34.725Z,59.57
2018-06-29T12:21:35.098Z,59.58
2018-06-29T12:22:34.814Z,59.56
2018-06-29T12:23:34.990Z,59.55
2018-06-29T12:24:35.024Z,59.59
2018-06-29T12:25:35.587Z,59.58
2018-06-29T12:26:34.919Z,59.57
2018-06-29T12:27:34.932Z,59.59
2018-06-29T12:28:34.974Z,59.57
2018-06-29T12:29:35.358Z,59.58
2018-06-29T12:30:34.879Z,59.58
2018-06-29T12:31:34.909Z,59.6
2018-06-29T12:32:34.907Z,59.6
2018-06-29T12:33:35.762Z,59.57
2018-06-29T12:34:35.644Z,59.57
2018-06-29T12:35:36.512Z,59.55
2018-06-29T12:36:35.761Z,59.59
2018-06-29T12:37:34.927Z,59.55
2018-06-29T12:38:34.892Z,59.59
2018-06-29T12:39:35.576Z,59.6
2018-06-29T12:40:34.894Z,59.56
2018-06-29T12:41:34.902Z,59.56
2018-06-29T12:42:35.350Z,59.58
2018-06-29T12:43:34.817Z,59.57
2018-06-29T12:44:35.592Z,59.53
2018-06-29T12:45:35.486Z,59.53
2018-06-29T12:46:34.869Z,59.53
2018-06-29T12:47:34.814Z,59.56
2018-06-29T12:48:35.657Z,59.53
2018-06-29T12:49:34.924Z,59.55
2018-06-29T12:50:34.938Z,59.57
2018-06-29T12:51:35.714Z,59.59
2018-06-29T12:52:34.867Z,59.58
2018-06-29T12:53:35.606Z,59.55
2018-06-29T12:54:35.829Z,59.57